Sycamore, Georgia
Current Conditions -  °F | °C
As of 6:15 PM on Friday 19 Dec 2014 (Local Time) from KTMA Reporting Station
Scattered Clouds Scattered Clouds  
Wind Chill: 54°   Ceiling: Unl
Heat Index: 54°   Visibility: 10mi
Dew Point: 42°   Wind: 0mph
Humidity: 63%   Direction: NA
Pressure: 30.08"   Gusts: NA
Location:  31.67°N, 83.64°W
Report Text: KTMA 192315Z AUTO 00000KT 10SM SCT120 12/05 A3008 RMK AO2 T01220054
Loading
Personal Weather Stations






























Interactive Weather Map New forecast layout! Learn more

10-Day Weather Forecast

Advertisements
Track Severe Weather on mobile